Terminal Aerodrome Forecast
Issued by NWS

Home | Current Version | Previous Version | Text Only | Print | Product List | Glossary Off
Versions: 1 2 3 4 5 6 7 8 9 10 11 12 13 14 15 16 17 18 19 20

101
FTUS43 KUNR 181835 AAA
TAFGCC
TAF AMD
KGCC 181835Z 1819/1918 35018G28KT 3/4SM -SN VV008
     FM182000 36015KT 3/4SM -SN OVC009
     FM190300 01010KT 1SM -SN OVC010
     FM191500 02010KT 1/2SM SN OVC008=

USA.gov is the U.S. government's official web portal to all federal, state and local government web resources and services.